RYR1863 EGCC-EICK
Flight info
| Callsign | RYR1863 |
|---|---|
| Flight time | 0h 56m |
| Altitude | 32000 |
| Route | ASMIM L975 WAL L10 PENIL M144 BAGSO DCT TISMO TISMO1G |
| Aircraft | B738/M-SDE2E3FGHIRWXY/LB1 |
Departure
| Time | 2026-05-06 03:08 |
|---|---|
| Airport | Manchester Airport (EGCC) |
Arrival
| Time | 2026-05-06 04:04 |
|---|---|
| Airport | Cork International Airport (EICK) |
| Time | Latitude | Longitude | Altitude | Speed | Heading |
|---|---|---|---|---|---|
| 2026-05-06 02:41 | 53.36118 | -2.26745 | 254 ft | 0 kts | 316° |
| 2026-05-06 02:58 | 53.36117 | -2.26743 | 279 ft | 2 kts | 316° |
| 2026-05-06 02:58 | 53.36100 | -2.26716 | 254 ft | 2 kts | 316° |
| 2026-05-06 02:58 | 53.36084 | -2.26688 | 252 ft | 4 kts | 306° |
| 2026-05-06 02:59 | 53.36074 | -2.26651 | 254 ft | 4 kts | 264° |
| 2026-05-06 02:59 | 53.36082 | -2.26615 | 254 ft | 4 kts | 240° |
| 2026-05-06 02:59 | 53.36096 | -2.26577 | 254 ft | 4 kts | 233° |
| 2026-05-06 02:59 | 53.36109 | -2.26549 | 254 ft | 4 kts | 231° |
| 2026-05-06 03:00 | 53.36126 | -2.26513 | 254 ft | 4 kts | 231° |
| 2026-05-06 03:00 | 53.36139 | -2.26486 | 254 ft | 4 kts | 231° |
| 2026-05-06 03:00 | 53.36149 | -2.26465 | 254 ft | 0 kts | 231° |
| 2026-05-06 03:02 | 53.36149 | -2.26466 | 254 ft | 0 kts | 231° |
| 2026-05-06 03:02 | 53.36140 | -2.26484 | 254 ft | 4 kts | 231° |
| 2026-05-06 03:02 | 53.36109 | -2.26549 | 254 ft | 10 kts | 232° |
| 2026-05-06 03:03 | 53.36063 | -2.26668 | 236 ft | 14 kts | 236° |
| 2026-05-06 03:03 | 53.35998 | -2.26805 | 254 ft | 16 kts | 230° |
| 2026-05-06 03:03 | 53.35899 | -2.26852 | 255 ft | 16 kts | 213° |
| 2026-05-06 03:03 | 53.35832 | -2.26992 | 255 ft | 15 kts | 242° |
| 2026-05-06 03:04 | 53.35771 | -2.27143 | 254 ft | 17 kts | 230° |
| 2026-05-06 03:04 | 53.35691 | -2.27308 | 254 ft | 20 kts | 231° |
| 2026-05-06 03:04 | 53.35592 | -2.27512 | 243 ft | 24 kts | 231° |
| 2026-05-06 03:04 | 53.35488 | -2.27727 | 238 ft | 23 kts | 231° |
| 2026-05-06 03:05 | 53.35429 | -2.27961 | 236 ft | 22 kts | 229° |
| 2026-05-06 03:05 | 53.35321 | -2.28141 | 236 ft | 22 kts | 224° |
| 2026-05-06 03:05 | 53.35216 | -2.28330 | 231 ft | 22 kts | 231° |
| 2026-05-06 03:05 | 53.35121 | -2.28530 | 226 ft | 22 kts | 231° |
| 2026-05-06 03:06 | 53.35026 | -2.28721 | 227 ft | 21 kts | 226° |
| 2026-05-06 03:06 | 53.34925 | -2.28894 | 224 ft | 20 kts | 225° |
| 2026-05-06 03:06 | 53.34840 | -2.29041 | 219 ft | 12 kts | 223° |
| 2026-05-06 03:06 | 53.34763 | -2.29070 | 217 ft | 12 kts | 176° |
| 2026-05-06 03:07 | 53.34679 | -2.28992 | 224 ft | 16 kts | 117° |
| 2026-05-06 03:07 | 53.34723 | -2.28841 | 221 ft | 15 kts | 51° |
| 2026-05-06 03:07 | 53.34856 | -2.28566 | 229 ft | 57 kts | 51° |
| 2026-05-06 03:07 | 53.35247 | -2.27761 | 237 ft | 118 kts | 51° |
| 2026-05-06 03:08 | 53.35852 | -2.26510 | 398 ft | 151 kts | 52° |
| 2026-05-06 03:08 | 53.36525 | -2.25077 | 958 ft | 161 kts | 54° |
| 2026-05-06 03:08 | 53.37214 | -2.23531 | 1569 ft | 168 kts | 52° |
| 2026-05-06 03:08 | 53.37941 | -2.22087 | 2072 ft | 160 kts | 47° |
| 2026-05-06 03:09 | 53.38915 | -2.21147 | 2598 ft | 168 kts | 17° |
| 2026-05-06 03:09 | 53.40099 | -2.21207 | 3112 ft | 176 kts | 342° |
| 2026-05-06 03:09 | 53.41082 | -2.22484 | 3658 ft | 188 kts | 304° |
| 2026-05-06 03:09 | 53.41696 | -2.24451 | 4223 ft | 196 kts | 300° |
| 2026-05-06 03:10 | 53.42335 | -2.26478 | 4754 ft | 196 kts | 300° |
| 2026-05-06 03:10 | 53.42959 | -2.28504 | 5259 ft | 198 kts | 299° |
| 2026-05-06 03:10 | 53.43591 | -2.30572 | 5779 ft | 200 kts | 299° |
| 2026-05-06 03:10 | 53.44229 | -2.32658 | 6301 ft | 202 kts | 299° |
| 2026-05-06 03:11 | 53.44871 | -2.34763 | 6814 ft | 204 kts | 298° |
| 2026-05-06 03:11 | 53.45520 | -2.36905 | 7265 ft | 209 kts | 297° |
| 2026-05-06 03:11 | 53.46181 | -2.39095 | 7747 ft | 213 kts | 297° |
| 2026-05-06 03:11 | 53.46846 | -2.41341 | 8231 ft | 218 kts | 292° |
| 2026-05-06 03:12 | 53.46977 | -2.43913 | 8661 ft | 230 kts | 262° |
| 2026-05-06 03:12 | 53.46668 | -2.46619 | 9120 ft | 242 kts | 261° |
| 2026-05-06 03:12 | 53.46348 | -2.49455 | 9602 ft | 253 kts | 261° |
| 2026-05-06 03:12 | 53.46015 | -2.52426 | 10056 ft | 265 kts | 261° |
| 2026-05-06 03:13 | 53.45669 | -2.55554 | 10474 ft | 278 kts | 261° |
| 2026-05-06 03:13 | 53.45315 | -2.58757 | 10872 ft | 285 kts | 261° |
| 2026-05-06 03:13 | 53.44944 | -2.62094 | 11288 ft | 292 kts | 261° |
| 2026-05-06 03:13 | 53.44564 | -2.65517 | 11716 ft | 305 kts | 261° |
| 2026-05-06 03:14 | 53.44176 | -2.69030 | 12145 ft | 316 kts | 261° |
| 2026-05-06 03:14 | 53.43763 | -2.72741 | 12581 ft | 328 kts | 261° |
| 2026-05-06 03:14 | 53.43339 | -2.76553 | 12990 ft | 339 kts | 261° |
| 2026-05-06 03:14 | 53.42899 | -2.80519 | 13421 ft | 351 kts | 261° |
| 2026-05-06 03:15 | 53.42448 | -2.84568 | 14093 ft | 355 kts | 261° |
| 2026-05-06 03:15 | 53.42145 | -2.87280 | 14549 ft | 356 kts | 261° |
| 2026-05-06 03:15 | 53.41686 | -2.91372 | 15250 ft | 358 kts | 260° |
| 2026-05-06 03:15 | 53.41223 | -2.95498 | 15940 ft | 361 kts | 260° |
| 2026-05-06 03:16 | 53.40755 | -2.99659 | 16615 ft | 365 kts | 260° |
| 2026-05-06 03:16 | 53.40279 | -3.03864 | 17281 ft | 368 kts | 260° |
| 2026-05-06 03:16 | 53.39808 | -3.08099 | 17940 ft | 371 kts | 263° |
| 2026-05-06 03:16 | 53.39828 | -3.12426 | 18511 ft | 374 kts | 281° |
| 2026-05-06 03:17 | 53.40604 | -3.16591 | 19104 ft | 377 kts | 295° |
| 2026-05-06 03:17 | 53.41986 | -3.20338 | 19687 ft | 380 kts | 304° |
| 2026-05-06 03:17 | 53.43536 | -3.23946 | 20230 ft | 383 kts | 305° |
| 2026-05-06 03:17 | 53.45123 | -3.27568 | 20739 ft | 387 kts | 305° |
| 2026-05-06 03:18 | 53.46698 | -3.31179 | 21262 ft | 390 kts | 304° |
| 2026-05-06 03:18 | 53.48301 | -3.34892 | 21795 ft | 393 kts | 304° |
| 2026-05-06 03:18 | 53.49904 | -3.38645 | 22320 ft | 396 kts | 304° |
| 2026-05-06 03:18 | 53.51511 | -3.42433 | 22838 ft | 399 kts | 304° |
| 2026-05-06 03:19 | 53.53126 | -3.46253 | 23338 ft | 403 kts | 303° |
| 2026-05-06 03:19 | 53.54754 | -3.50113 | 23804 ft | 406 kts | 303° |
| 2026-05-06 03:19 | 53.56392 | -3.53998 | 24205 ft | 408 kts | 303° |
| 2026-05-06 03:19 | 53.58037 | -3.57915 | 24616 ft | 411 kts | 303° |
| 2026-05-06 03:20 | 53.60887 | -3.66193 | 25416 ft | 413 kts | 289° |
| 2026-05-06 03:20 | 53.61712 | -3.70835 | 25834 ft | 414 kts | 281° |
| 2026-05-06 03:20 | 53.62087 | -3.75660 | 26202 ft | 417 kts | 274° |
| 2026-05-06 03:21 | 53.62256 | -3.80556 | 26565 ft | 419 kts | 273° |
| 2026-05-06 03:21 | 53.62425 | -3.85492 | 26923 ft | 422 kts | 273° |
| 2026-05-06 03:21 | 53.62617 | -3.90444 | 27286 ft | 424 kts | 274° |
| 2026-05-06 03:21 | 53.62825 | -3.95431 | 27657 ft | 426 kts | 274° |
| 2026-05-06 03:22 | 53.63027 | -4.00336 | 28128 ft | 425 kts | 274° |
| 2026-05-06 03:22 | 53.63222 | -4.05284 | 28683 ft | 422 kts | 273° |
| 2026-05-06 03:22 | 53.63412 | -4.10210 | 29214 ft | 420 kts | 273° |
| 2026-05-06 03:22 | 53.63598 | -4.15125 | 29671 ft | 420 kts | 273° |
| 2026-05-06 03:23 | 53.63781 | -4.20027 | 30203 ft | 417 kts | 273° |
| 2026-05-06 03:23 | 53.63963 | -4.24896 | 30694 ft | 414 kts | 273° |
| 2026-05-06 03:23 | 53.64139 | -4.29734 | 31065 ft | 414 kts | 273° |
| 2026-05-06 03:23 | 53.64317 | -4.34578 | 31408 ft | 414 kts | 273° |
| 2026-05-06 03:24 | 53.64489 | -4.39415 | 31764 ft | 413 kts | 273° |
| 2026-05-06 03:24 | 53.64656 | -4.44259 | 32060 ft | 414 kts | 272° |
| 2026-05-06 03:24 | 53.64991 | -4.54040 | 32037 ft | 417 kts | 272° |
| 2026-05-06 03:25 | 53.65318 | -4.63716 | 32044 ft | 410 kts | 272° |
| 2026-05-06 03:25 | 53.65640 | -4.73256 | 32050 ft | 410 kts | 272° |
| 2026-05-06 03:26 | 53.65952 | -4.82840 | 32043 ft | 410 kts | 272° |
| 2026-05-06 03:26 | 53.66265 | -4.92442 | 32044 ft | 410 kts | 272° |
| 2026-05-06 03:27 | 53.66582 | -5.02034 | 32046 ft | 409 kts | 272° |
| 2026-05-06 03:27 | 53.66893 | -5.11631 | 32047 ft | 409 kts | 272° |
| 2026-05-06 03:28 | 53.67184 | -5.21230 | 32050 ft | 409 kts | 272° |
| 2026-05-06 03:28 | 53.67456 | -5.30761 | 32045 ft | 409 kts | 272° |
| 2026-05-06 03:29 | 53.67726 | -5.40346 | 32046 ft | 408 kts | 272° |
| 2026-05-06 03:29 | 53.66997 | -5.49736 | 32060 ft | 409 kts | 248° |
| 2026-05-06 03:30 | 53.65645 | -5.53962 | 32039 ft | 412 kts | 235° |
| 2026-05-06 03:30 | 53.63748 | -5.57603 | 32056 ft | 413 kts | 227° |
| 2026-05-06 03:30 | 53.59663 | -5.64438 | 32024 ft | 414 kts | 226° |
| 2026-05-06 03:31 | 53.55548 | -5.71248 | 32040 ft | 415 kts | 226° |
| 2026-05-06 03:31 | 53.51485 | -5.78064 | 32048 ft | 416 kts | 227° |
| 2026-05-06 03:32 | 53.47395 | -5.84969 | 32049 ft | 417 kts | 227° |
| 2026-05-06 03:32 | 53.43302 | -5.91878 | 32065 ft | 418 kts | 227° |
| 2026-05-06 03:33 | 53.39195 | -5.98794 | 32069 ft | 418 kts | 227° |
| 2026-05-06 03:33 | 53.35080 | -6.05702 | 32071 ft | 419 kts | 227° |
| 2026-05-06 03:34 | 53.30980 | -6.12565 | 32071 ft | 419 kts | 227° |
| 2026-05-06 03:34 | 53.26849 | -6.19458 | 32071 ft | 419 kts | 227° |
| 2026-05-06 03:35 | 53.22724 | -6.26323 | 32072 ft | 418 kts | 227° |
| 2026-05-06 03:35 | 53.18598 | -6.33168 | 32073 ft | 417 kts | 227° |
| 2026-05-06 03:36 | 53.14484 | -6.39974 | 32068 ft | 417 kts | 227° |
| 2026-05-06 03:36 | 53.10387 | -6.46733 | 32068 ft | 415 kts | 227° |
| 2026-05-06 03:37 | 53.08365 | -6.50058 | 32035 ft | 404 kts | 227° |
| 2026-05-06 03:37 | 53.06380 | -6.53318 | 31711 ft | 397 kts | 226° |
| 2026-05-06 03:37 | 53.04425 | -6.56523 | 31374 ft | 392 kts | 226° |
| 2026-05-06 03:37 | 53.02493 | -6.59690 | 31025 ft | 388 kts | 226° |
| 2026-05-06 03:38 | 53.00574 | -6.62833 | 30635 ft | 385 kts | 226° |
| 2026-05-06 03:38 | 52.98671 | -6.65947 | 30264 ft | 383 kts | 226° |
| 2026-05-06 03:38 | 52.96776 | -6.69044 | 29849 ft | 381 kts | 226° |
| 2026-05-06 03:38 | 52.94898 | -6.72107 | 29426 ft | 378 kts | 226° |
| 2026-05-06 03:39 | 52.93032 | -6.75147 | 29049 ft | 374 kts | 226° |
| 2026-05-06 03:39 | 52.91180 | -6.78161 | 28657 ft | 372 kts | 226° |
| 2026-05-06 03:39 | 52.89340 | -6.81149 | 28265 ft | 369 kts | 226° |
| 2026-05-06 03:39 | 52.87516 | -6.84110 | 27898 ft | 366 kts | 226° |
| 2026-05-06 03:40 | 52.85699 | -6.87056 | 27502 ft | 365 kts | 226° |
| 2026-05-06 03:40 | 52.83888 | -6.89987 | 27124 ft | 363 kts | 226° |
| 2026-05-06 03:40 | 52.82112 | -6.92860 | 26748 ft | 361 kts | 226° |
| 2026-05-06 03:40 | 52.80299 | -6.95790 | 26377 ft | 367 kts | 226° |
| 2026-05-06 03:41 | 52.78471 | -6.98739 | 25988 ft | 367 kts | 226° |
| 2026-05-06 03:41 | 52.76642 | -7.01684 | 25619 ft | 366 kts | 226° |
| 2026-05-06 03:41 | 52.74822 | -7.04614 | 25245 ft | 366 kts | 226° |
| 2026-05-06 03:41 | 52.72997 | -7.07545 | 24857 ft | 366 kts | 225° |
| 2026-05-06 03:42 | 52.71171 | -7.10477 | 24490 ft | 366 kts | 225° |
| 2026-05-06 03:42 | 52.69347 | -7.13402 | 24110 ft | 366 kts | 225° |
| 2026-05-06 03:42 | 52.67516 | -7.16333 | 23737 ft | 366 kts | 225° |
| 2026-05-06 03:42 | 52.65682 | -7.19267 | 23284 ft | 367 kts | 225° |
| 2026-05-06 03:43 | 52.63852 | -7.22190 | 22866 ft | 366 kts | 225° |
| 2026-05-06 03:43 | 52.62029 | -7.25098 | 22473 ft | 364 kts | 225° |
| 2026-05-06 03:43 | 52.60235 | -7.27957 | 22106 ft | 362 kts | 225° |
| 2026-05-06 03:43 | 52.58427 | -7.30833 | 21719 ft | 360 kts | 225° |
| 2026-05-06 03:44 | 52.56631 | -7.33688 | 21337 ft | 359 kts | 225° |
| 2026-05-06 03:44 | 52.54838 | -7.36535 | 20971 ft | 357 kts | 225° |
| 2026-05-06 03:44 | 52.53055 | -7.39363 | 20585 ft | 355 kts | 225° |
| 2026-05-06 03:44 | 52.51275 | -7.42182 | 20220 ft | 353 kts | 225° |
| 2026-05-06 03:45 | 52.49509 | -7.44976 | 19864 ft | 352 kts | 225° |
| 2026-05-06 03:45 | 52.47772 | -7.47720 | 19508 ft | 350 kts | 225° |
| 2026-05-06 03:45 | 52.46022 | -7.50483 | 19153 ft | 349 kts | 225° |
| 2026-05-06 03:45 | 52.44265 | -7.53253 | 18788 ft | 348 kts | 225° |
| 2026-05-06 03:46 | 52.42524 | -7.55995 | 18431 ft | 347 kts | 225° |
| 2026-05-06 03:46 | 52.40782 | -7.58737 | 18036 ft | 346 kts | 225° |
| 2026-05-06 03:46 | 52.39043 | -7.61469 | 17630 ft | 346 kts | 225° |
| 2026-05-06 03:46 | 52.37311 | -7.64188 | 17257 ft | 345 kts | 225° |
| 2026-05-06 03:47 | 52.35579 | -7.66904 | 16880 ft | 344 kts | 225° |
| 2026-05-06 03:47 | 52.33874 | -7.69575 | 16535 ft | 344 kts | 224° |
| 2026-05-06 03:47 | 52.32146 | -7.72279 | 16175 ft | 343 kts | 224° |
| 2026-05-06 03:47 | 52.30419 | -7.74979 | 15816 ft | 343 kts | 224° |
| 2026-05-06 03:48 | 52.28686 | -7.77680 | 15457 ft | 343 kts | 224° |
| 2026-05-06 03:48 | 52.26962 | -7.80364 | 15092 ft | 341 kts | 224° |
| 2026-05-06 03:48 | 52.25255 | -7.83022 | 14729 ft | 338 kts | 224° |
| 2026-05-06 03:48 | 52.23559 | -7.85662 | 14376 ft | 336 kts | 224° |
| 2026-05-06 03:49 | 52.21870 | -7.88291 | 14031 ft | 334 kts | 224° |
| 2026-05-06 03:49 | 52.20195 | -7.90899 | 13664 ft | 332 kts | 224° |
| 2026-05-06 03:49 | 52.18524 | -7.93496 | 13292 ft | 330 kts | 224° |
| 2026-05-06 03:49 | 52.16865 | -7.96065 | 12930 ft | 328 kts | 224° |
| 2026-05-06 03:50 | 52.15215 | -7.98611 | 12581 ft | 325 kts | 224° |
| 2026-05-06 03:50 | 52.13502 | -8.00986 | 12236 ft | 324 kts | 211° |
| 2026-05-06 03:50 | 52.11446 | -8.02274 | 12005 ft | 318 kts | 195° |
| 2026-05-06 03:50 | 52.09300 | -8.03171 | 11649 ft | 317 kts | 193° |
| 2026-05-06 03:51 | 52.07159 | -8.04017 | 11332 ft | 316 kts | 193° |
| 2026-05-06 03:51 | 52.05030 | -8.04857 | 11005 ft | 314 kts | 193° |
| 2026-05-06 03:51 | 52.02908 | -8.05706 | 10680 ft | 313 kts | 193° |
| 2026-05-06 03:51 | 52.00797 | -8.06562 | 10404 ft | 310 kts | 194° |
| 2026-05-06 03:52 | 51.98735 | -8.07403 | 10270 ft | 302 kts | 193° |
| 2026-05-06 03:52 | 51.96750 | -8.08214 | 10133 ft | 294 kts | 194° |
| 2026-05-06 03:52 | 51.94789 | -8.09019 | 9956 ft | 288 kts | 193° |
| 2026-05-06 03:52 | 51.92846 | -8.09819 | 9648 ft | 287 kts | 194° |
| 2026-05-06 03:53 | 51.90917 | -8.10616 | 9355 ft | 285 kts | 194° |
| 2026-05-06 03:53 | 51.89001 | -8.11407 | 9081 ft | 282 kts | 193° |
| 2026-05-06 03:53 | 51.87098 | -8.12190 | 8786 ft | 281 kts | 194° |
| 2026-05-06 03:53 | 51.85208 | -8.12970 | 8428 ft | 281 kts | 194° |
| 2026-05-06 03:54 | 51.83305 | -8.13756 | 8084 ft | 282 kts | 193° |
| 2026-05-06 03:54 | 51.81371 | -8.14375 | 7682 ft | 285 kts | 188° |
| 2026-05-06 03:54 | 51.79415 | -8.14695 | 7286 ft | 281 kts | 180° |
| 2026-05-06 03:54 | 51.77478 | -8.14669 | 6875 ft | 275 kts | 179° |
| 2026-05-06 03:55 | 51.75588 | -8.14621 | 6443 ft | 270 kts | 178° |
| 2026-05-06 03:55 | 51.73722 | -8.14576 | 5989 ft | 266 kts | 178° |
| 2026-05-06 03:55 | 51.71905 | -8.14532 | 5549 ft | 262 kts | 177° |
| 2026-05-06 03:55 | 51.70095 | -8.14479 | 5104 ft | 259 kts | 177° |
| 2026-05-06 03:56 | 51.68305 | -8.14431 | 4668 ft | 256 kts | 176° |
| 2026-05-06 03:56 | 51.66534 | -8.14329 | 4221 ft | 253 kts | 175° |
| 2026-05-06 03:56 | 51.64783 | -8.14232 | 3772 ft | 250 kts | 179° |
| 2026-05-06 03:56 | 51.63117 | -8.14952 | 3321 ft | 249 kts | 210° |
| 2026-05-06 03:57 | 51.61937 | -8.16862 | 3114 ft | 236 kts | 240° |
| 2026-05-06 03:57 | 51.61503 | -8.19323 | 3021 ft | 225 kts | 268° |
| 2026-05-06 03:57 | 51.61681 | -8.21750 | 3015 ft | 216 kts | 284° |
| 2026-05-06 03:57 | 51.62081 | -8.24118 | 3013 ft | 222 kts | 287° |
| 2026-05-06 03:58 | 51.62513 | -8.26520 | 3017 ft | 225 kts | 286° |
| 2026-05-06 03:58 | 51.62939 | -8.28929 | 3007 ft | 223 kts | 286° |
| 2026-05-06 03:58 | 51.63356 | -8.31324 | 2989 ft | 222 kts | 286° |
| 2026-05-06 03:58 | 51.63761 | -8.33669 | 2995 ft | 218 kts | 285° |
| 2026-05-06 03:59 | 51.64173 | -8.35964 | 2987 ft | 208 kts | 292° |
| 2026-05-06 03:59 | 51.65008 | -8.37687 | 2985 ft | 188 kts | 332° |
| 2026-05-06 03:59 | 51.66214 | -8.38443 | 3030 ft | 188 kts | 340° |
| 2026-05-06 03:59 | 51.67446 | -8.39211 | 3009 ft | 188 kts | 340° |
| 2026-05-06 04:00 | 51.68644 | -8.39941 | 3009 ft | 184 kts | 340° |
| 2026-05-06 04:00 | 51.69833 | -8.40651 | 3001 ft | 181 kts | 339° |
| 2026-05-06 04:00 | 51.71019 | -8.41353 | 3001 ft | 181 kts | 341° |
| 2026-05-06 04:00 | 51.72204 | -8.42055 | 2831 ft | 179 kts | 340° |
| 2026-05-06 04:01 | 51.73317 | -8.42716 | 2612 ft | 163 kts | 340° |
| 2026-05-06 04:01 | 51.74005 | -8.43128 | 2467 ft | 157 kts | 339° |
| 2026-05-06 04:01 | 51.75390 | -8.43949 | 2194 ft | 160 kts | 339° |
| 2026-05-06 04:01 | 51.76091 | -8.44362 | 2041 ft | 157 kts | 339° |
| 2026-05-06 04:02 | 51.77414 | -8.45143 | 1770 ft | 146 kts | 339° |
| 2026-05-06 04:02 | 51.78061 | -8.45527 | 1627 ft | 148 kts | 338° |
| 2026-05-06 04:02 | 51.79032 | -8.46099 | 1413 ft | 151 kts | 337° |
| 2026-05-06 04:02 | 51.80002 | -8.46675 | 1183 ft | 146 kts | 336° |
| 2026-05-06 04:03 | 51.80936 | -8.47237 | 983 ft | 143 kts | 331° |
| 2026-05-06 04:03 | 51.81859 | -8.47800 | 836 ft | 142 kts | 343° |
| 2026-05-06 04:03 | 51.82799 | -8.48331 | 635 ft | 143 kts | 339° |
| 2026-05-06 04:03 | 51.83722 | -8.48874 | 504 ft | 136 kts | 340° |
| 2026-05-06 04:04 | 51.84452 | -8.49303 | 503 ft | 82 kts | 340° |
| 2026-05-06 04:04 | 51.84745 | -8.49460 | 503 ft | 15 kts | 11° |
| 2026-05-06 04:04 | 51.84789 | -8.49352 | 503 ft | 12 kts | 70° |
| 2026-05-06 04:04 | 51.84800 | -8.49304 | 503 ft | 2 kts | 69° |
| 2026-05-06 04:05 | 51.84807 | -8.49278 | 503 ft | 2 kts | 64° |
| 2026-05-06 04:05 | 51.84817 | -8.49254 | 503 ft | 3 kts | 50° |
| 2026-05-06 04:05 | 51.84840 | -8.49234 | 503 ft | 4 kts | 12° |
| 2026-05-06 04:05 | 51.84880 | -8.49248 | 503 ft | 8 kts | 340° |
| 2026-05-06 04:06 | 51.84915 | -8.49209 | 503 ft | 6 kts | 74° |
| 2026-05-06 04:06 | 51.84927 | -8.49151 | 503 ft | 5 kts | 70° |
| 2026-05-06 04:06 | 51.84936 | -8.49111 | 503 ft | 1 kts | 70° |
| 2026-05-06 04:06 | 51.84937 | -8.49106 | 503 ft | 0 kts | 70° |